Time;durP1;ratioP1;P1;durP2;ratioP2;P2;SDS_P1;SDS_P2;PMS_P1;PMS_P2;Temp;Humidity;BMP_temperature;BMP_pressure;BME280_temperature;BME280_humidity;BME280_pressure;Samples;Min_cycle;Max_cycle;Signal;HPM_P1;HPM_P2
2022/12/02 00:01:26;;;;;;;55.53;25.93;;;;;5.10;101993.00;;;;9877622;30;20217;-76
2022/12/02 00:06:31;;;;;;;58.40;26.43;;;;;5.10;101982.00;;;;9848971;30;20201;-76
2022/12/02 00:11:33;;;;;;;50.50;26.90;;;;;5.10;101983.00;;;;9837715;30;20214;-76
2022/12/02 00:16:35;;;;;;;54.83;25.20;;;;;5.10;101973.00;;;;9850677;30;20211;-76
2022/12/02 00:21:37;;;;;;;54.10;25.70;;;;;5.10;101964.00;;;;9851418;30;20208;-76
2022/12/02 00:26:39;;;;;;;54.47;24.80;;;;;5.10;101964.00;;;;9851217;30;20561;-76
2022/12/02 00:31:41;;;;;;;62.97;25.67;;;;;5.10;101960.00;;;;9851412;30;20213;-76
2022/12/02 00:36:43;;;;;;;61.73;26.53;;;;;5.10;101960.00;;;;9838520;30;20217;-76
2022/12/02 00:41:45;;;;;;;58.90;26.17;;;;;5.10;101948.00;;;;9865475;30;20248;-76
2022/12/02 00:46:47;;;;;;;59.07;26.17;;;;;5.10;101951.00;;;;9836890;30;20243;-76
2022/12/02 00:51:49;;;;;;;61.10;24.70;;;;;5.00;101944.00;;;;9850387;30;20283;-77
2022/12/02 00:56:50;;;;;;;57.50;25.23;;;;;5.00;101955.00;;;;9849859;30;20221;-76
2022/12/02 01:01:52;;;;;;;62.83;25.70;;;;;5.00;101941.00;;;;9849068;30;20301;-76
2022/12/02 01:06:54;;;;;;;54.83;26.77;;;;;5.00;101947.00;;;;9835124;30;20668;-76
2022/12/02 01:11:56;;;;;;;54.90;25.13;;;;;5.00;101946.00;;;;9864851;30;20421;-77
2022/12/02 01:16:58;;;;;;;58.00;24.53;;;;;5.00;101931.00;;;;9864665;30;20193;-76
2022/12/02 01:22:00;;;;;;;59.00;25.20;;;;;5.00;101923.00;;;;9848124;30;20226;-76
2022/12/02 01:27:09;;;;;;;54.40;25.50;;;;;5.00;101926.00;;;;10484994;28;20626;-75
2022/12/02 01:32:11;;;;;;;51.57;23.33;;;;;5.00;101931.00;;;;10436261;28;20197;-75
2022/12/02 01:37:13;;;;;;;49.07;23.97;;;;;4.90;101922.00;;;;10442881;28;20201;-75
2022/12/02 01:42:15;;;;;;;57.23;25.83;;;;;4.90;101918.00;;;;10439489;28;20194;-75
2022/12/02 01:47:17;;;;;;;62.67;24.53;;;;;4.90;101916.00;;;;10436741;28;20665;-75
2022/12/02 01:52:19;;;;;;;53.03;24.00;;;;;4.90;101916.00;;;;10408666;28;20187;-75
2022/12/02 01:57:27;;;;;;;51.90;22.83;;;;;4.90;101909.00;;;;10440272;28;20265;-75
2022/12/02 02:02:31;;;;;;;59.90;26.93;;;;;4.90;101910.00;;;;10423389;28;20237;-77
2022/12/02 02:07:34;;;;;;;51.60;24.63;;;;;4.90;101915.00;;;;10424231;28;20236;-77
2022/12/02 02:12:36;;;;;;;62.67;24.87;;;;;4.90;101914.00;;;;10389285;28;20195;-77
2022/12/02 02:17:39;;;;;;;56.27;24.80;;;;;4.90;101906.00;;;;10426061;28;20190;-76
2022/12/02 02:23:04;;;;;;;59.17;25.17;;;;;4.90;101920.00;;;;10373776;28;20222;-77
2022/12/02 02:28:08;;;;;;;55.70;24.67;;;;;4.90;101909.00;;;;10386863;28;21939;-77
2022/12/02 02:33:13;;;;;;;57.67;23.87;;;;;4.90;101905.00;;;;10442303;28;20237;-77
2022/12/02 02:38:22;;;;;;;54.03;23.93;;;;;4.90;101893.00;;;;10383255;28;20199;-77
2022/12/02 02:43:27;;;;;;;54.17;24.77;;;;;4.90;101888.00;;;;10369534;28;20203;-77
2022/12/02 02:48:30;;;;;;;54.90;22.97;;;;;4.80;101887.00;;;;10374342;28;20225;-77
2022/12/02 02:53:32;;;;;;;53.67;22.73;;;;;4.80;101883.00;;;;10364746;28;20210;-77
2022/12/02 02:58:36;;;;;;;59.80;23.97;;;;;4.90;101891.00;;;;10380887;28;20201;-77
2022/12/02 03:03:42;;;;;;;58.13;23.00;;;;;4.80;101884.00;;;;10374139;28;20203;-77
2022/12/02 03:08:47;;;;;;;63.07;25.00;;;;;4.80;101876.00;;;;10377760;28;20553;-77
2022/12/02 03:13:50;;;;;;;56.07;24.03;;;;;4.80;101874.00;;;;10353355;28;20191;-77
2022/12/02 03:18:54;;;;;;;56.97;24.73;;;;;4.80;101863.00;;;;10376917;28;20200;-77
2022/12/02 03:23:59;;;;;;;65.00;24.70;;;;;4.90;101854.00;;;;10405582;28;20266;-77
2022/12/02 03:29:03;;;;;;;61.00;24.20;;;;;4.90;101870.00;;;;10382956;28;20597;-77
2022/12/02 03:34:06;;;;;;;66.67;25.40;;;;;4.90;101850.00;;;;10419603;28;20186;-77
2022/12/02 03:39:09;;;;;;;55.27;24.47;;;;;4.90;101844.00;;;;10412795;28;20245;-76
2022/12/02 03:44:11;;;;;;;60.87;24.57;;;;;4.80;101840.00;;;;10370577;28;20239;-77
2022/12/02 03:49:14;;;;;;;61.60;24.63;;;;;4.90;101824.00;;;;10370347;28;20343;-76
2022/12/02 03:54:16;;;;;;;63.93;24.93;;;;;4.90;101822.00;;;;10374059;28;20240;-77
2022/12/02 03:59:20;;;;;;;56.87;25.03;;;;;4.90;101823.00;;;;10373532;28;20195;-76
2022/12/02 04:04:22;;;;;;;61.70;24.37;;;;;4.90;101826.00;;;;10399104;28;20211;-77
2022/12/02 04:09:24;;;;;;;55.57;23.17;;;;;4.90;101823.00;;;;10390749;28;20245;-77
2022/12/02 04:14:26;;;;;;;59.43;23.50;;;;;4.90;101816.00;;;;10377418;28;20195;-77
2022/12/02 04:19:28;;;;;;;61.27;23.80;;;;;4.90;101831.00;;;;10381894;28;20634;-77
2022/12/02 04:24:30;;;;;;;62.03;25.13;;;;;4.90;101823.00;;;;10385810;28;20218;-77
2022/12/02 04:29:32;;;;;;;68.03;24.33;;;;;4.90;101815.00;;;;10342928;28;20590;-76
2022/12/02 04:34:34;;;;;;;63.17;24.60;;;;;4.90;101800.00;;;;10375808;28;20187;-76
2022/12/02 04:39:36;;;;;;;75.13;28.00;;;;;4.90;101804.00;;;;10393495;28;20717;-77
2022/12/02 04:44:38;;;;;;;66.17;26.57;;;;;4.90;101799.00;;;;10342652;28;20207;-77
2022/12/02 04:49:40;;;;;;;81.87;28.67;;;;;4.90;101795.00;;;;10401298;28;20253;-77
2022/12/02 04:54:41;;;;;;;77.30;27.83;;;;;4.90;101796.00;;;;10376349;28;20193;-77
2022/12/02 04:59:43;;;;;;;72.57;29.07;;;;;4.90;101784.00;;;;10357311;28;20211;-76
2022/12/02 05:04:45;;;;;;;68.17;27.30;;;;;4.90;101786.00;;;;10394648;28;20214;-77
2022/12/02 05:09:47;;;;;;;78.07;27.77;;;;;4.90;101792.00;;;;10412943;28;20712;-77
2022/12/02 05:14:50;;;;;;;76.80;29.13;;;;;4.90;101785.00;;;;10385314;28;20191;-76
2022/12/02 05:19:53;;;;;;;66.60;27.40;;;;;4.90;101774.00;;;;10401376;28;20281;-77
2022/12/02 05:24:55;;;;;;;78.60;27.77;;;;;4.90;101769.00;;;;10401340;28;20223;-77
2022/12/02 05:29:57;;;;;;;72.03;28.67;;;;;4.90;101769.00;;;;10385631;28;20248;-77
2022/12/02 05:34:59;;;;;;;83.77;30.50;;;;;4.90;101755.00;;;;10366715;28;20253;-77
2022/12/02 05:40:01;;;;;;;67.93;29.27;;;;;4.90;101752.00;;;;10368156;28;20194;-77
2022/12/02 05:45:19;;;;;;;81.10;30.87;;;;;4.80;101749.00;;;;10407546;28;20241;-77
2022/12/02 05:50:22;;;;;;;69.50;29.47;;;;;4.80;101753.00;;;;10369985;28;20821;-77
2022/12/02 05:55:29;;;;;;;80.67;30.90;;;;;4.80;101752.00;;;;10385789;28;20197;-77
2022/12/02 06:00:31;;;;;;;101.07;32.70;;;;;4.70;101758.00;;;;10402429;28;20242;-77
2022/12/02 06:05:38;;;;;;;92.53;34.10;;;;;4.70;101753.00;;;;10357318;28;20202;-79
2022/12/02 06:10:46;;;;;;;88.70;32.97;;;;;4.60;101766.00;;;;10379210;28;20336;-79
2022/12/02 06:15:50;;;;;;;101.10;34.37;;;;;4.60;101770.00;;;;10371673;28;20196;-78
2022/12/02 06:20:56;;;;;;;104.63;34.07;;;;;4.60;101781.00;;;;10376520;28;20253;-77
2022/12/02 06:25:59;;;;;;;86.90;33.30;;;;;4.50;101773.00;;;;10403313;28;20223;-77
2022/12/02 06:31:12;;;;;;;90.97;34.53;;;;;4.50;101769.00;;;;10384790;28;20199;-77
2022/12/02 06:36:28;;;;;;;99.00;32.93;;;;;4.50;101766.00;;;;10388253;28;20190;-77
2022/12/02 06:41:36;;;;;;;107.70;35.93;;;;;4.50;101766.00;;;;10399024;28;20654;-77
2022/12/02 06:46:38;;;;;;;93.30;33.00;;;;;4.50;101765.00;;;;10392848;28;20207;-77
2022/12/02 06:51:39;;;;;;;99.30;34.83;;;;;4.50;101772.00;;;;10386221;28;20198;-77
2022/12/02 06:56:41;;;;;;;100.93;34.47;;;;;4.40;101780.00;;;;10375202;28;20183;-77
2022/12/02 07:01:44;;;;;;;101.23;33.77;;;;;4.40;101790.00;;;;10403612;28;20225;-77
2022/12/02 07:06:50;;;;;;;79.73;28.13;;;;;4.40;101782.00;;;;10376490;28;20200;-77
2022/12/02 07:11:53;;;;;;;63.30;24.00;;;;;4.30;101779.00;;;;10407088;28;20187;-77
2022/12/02 07:17:00;;;;;;;60.60;23.50;;;;;4.30;101765.00;;;;10410670;28;20214;-77
2022/12/02 07:22:10;;;;;;;56.33;23.53;;;;;4.30;101765.00;;;;10367068;28;20191;-78
2022/12/02 07:27:24;;;;;;;60.87;24.13;;;;;4.20;101776.00;;;;10408723;28;20213;-77
2022/12/02 07:32:27;;;;;;;56.87;25.10;;;;;4.20;101780.00;;;;10411307;28;20270;-77
2022/12/02 07:37:29;;;;;;;70.00;24.23;;;;;4.20;101779.00;;;;10381400;28;20199;-77
2022/12/02 07:42:31;;;;;;;69.53;25.90;;;;;4.20;101770.00;;;;10374613;28;20278;-78
2022/12/02 07:47:33;;;;;;;80.50;29.87;;;;;4.20;101778.00;;;;10404834;28;20458;-78
2022/12/02 07:52:35;;;;;;;90.83;30.43;;;;;4.20;101771.00;;;;10341935;28;20203;-78
2022/12/02 07:57:38;;;;;;;97.63;31.00;;;;;4.10;101763.00;;;;10379581;28;20198;-77
2022/12/02 08:02:40;;;;;;;84.40;30.73;;;;;4.10;101767.00;;;;10363384;28;20221;-78
2022/12/02 08:07:42;;;;;;;74.80;29.23;;;;;4.10;101761.00;;;;10391919;28;20207;-77
2022/12/02 08:12:44;;;;;;;73.07;28.10;;;;;4.10;101768.00;;;;10409871;28;20681;-78
2022/12/02 08:17:45;;;;;;;67.13;26.83;;;;;4.10;101775.00;;;;10366230;28;20213;-78
2022/12/02 08:22:47;;;;;;;62.13;26.17;;;;;4.00;101770.00;;;;10397926;28;20206;-78
2022/12/02 08:27:49;;;;;;;82.57;28.17;;;;;4.00;101778.00;;;;10376716;28;20224;-77
2022/12/02 08:32:51;;;;;;;63.67;24.73;;;;;4.00;101782.00;;;;10379901;28;20192;-77
2022/12/02 08:37:53;;;;;;;56.03;23.10;;;;;4.00;101768.00;;;;10383744;28;20190;-77
2022/12/02 08:42:55;;;;;;;59.57;20.80;;;;;4.00;101767.00;;;;10385331;28;20328;-78
2022/12/02 08:47:57;;;;;;;54.00;21.20;;;;;3.80;101776.00;;;;10352699;28;20215;-77
2022/12/02 08:52:59;;;;;;;52.33;20.67;;;;;3.80;101771.00;;;;10379560;28;20191;-78
2022/12/02 08:58:01;;;;;;;51.63;19.87;;;;;3.70;101770.00;;;;10389720;28;20214;-77
2022/12/02 09:03:05;;;;;;;45.23;17.90;;;;;3.70;101772.00;;;;10404259;28;20206;-77
2022/12/02 09:08:08;;;;;;;52.37;19.40;;;;;3.60;101768.00;;;;10379932;28;20528;-77
2022/12/02 09:13:10;;;;;;;47.17;17.93;;;;;3.60;101762.00;;;;10400710;28;20228;-77
2022/12/02 09:18:11;;;;;;;44.17;18.53;;;;;3.70;101762.00;;;;10402996;28;20676;-77
2022/12/02 09:23:15;;;;;;;48.37;18.90;;;;;3.70;101754.00;;;;10387994;28;20198;-78
2022/12/02 09:28:19;;;;;;;47.10;17.70;;;;;3.80;101764.00;;;;10398347;28;20680;-77
2022/12/02 09:33:21;;;;;;;46.13;18.07;;;;;3.80;101755.00;;;;10403732;28;20248;-77
2022/12/02 09:38:23;;;;;;;43.47;19.00;;;;;3.80;101765.00;;;;10377231;28;20587;-78
2022/12/02 09:43:29;;;;;;;45.47;19.23;;;;;3.80;101760.00;;;;10402973;28;20194;-77
2022/12/02 09:48:31;;;;;;;46.17;17.03;;;;;3.80;101751.00;;;;10400555;28;20216;-77
2022/12/02 09:53:36;;;;;;;49.23;17.93;;;;;3.80;101750.00;;;;10382711;28;20200;-78
2022/12/02 09:58:38;;;;;;;50.57;17.97;;;;;3.70;101752.00;;;;10380380;28;20248;-77
2022/12/02 10:03:41;;;;;;;44.67;16.30;;;;;3.70;101748.00;;;;10409238;28;20226;-78
2022/12/02 10:08:43;;;;;;;42.37;16.43;;;;;3.70;101759.00;;;;10405911;28;20204;-78
2022/12/02 10:13:45;;;;;;;41.93;18.13;;;;;3.70;101746.00;;;;10378453;28;20187;-78
2022/12/02 10:18:48;;;;;;;53.00;18.97;;;;;3.60;101744.00;;;;10373525;28;20195;-78
2022/12/02 10:23:54;;;;;;;44.57;17.67;;;;;3.60;101740.00;;;;10400298;28;20306;-78
2022/12/02 10:29:08;;;;;;;47.53;19.33;;;;;3.80;101755.00;;;;10376015;28;20199;-77
2022/12/02 10:34:19;;;;;;;52.77;18.90;;;;;3.90;101735.00;;;;10402301;28;20186;-77
2022/12/02 10:39:33;;;;;;;55.30;20.27;;;;;4.00;101736.00;;;;10387916;28;20257;-78
2022/12/02 10:44:41;;;;;;;47.80;17.97;;;;;4.20;101726.00;;;;10385907;28;20218;-77
2022/12/02 10:49:52;;;;;;;34.87;16.10;;;;;4.40;101709.00;;;;10379244;28;20223;-77
2022/12/02 10:54:56;;;;;;;45.10;16.60;;;;;4.50;101692.00;;;;10400510;28;20190;-77
2022/12/02 11:00:06;;;;;;;38.57;16.10;;;;;4.60;101691.00;;;;10360941;28;20250;-77
2022/12/02 11:05:16;;;;;;;44.43;18.30;;;;;4.60;101697.00;;;;10363411;28;20238;-77
2022/12/02 11:10:21;;;;;;;44.93;16.77;;;;;4.40;101696.00;;;;10373105;28;20196;-77
2022/12/02 11:15:48;;;;;;;38.60;16.27;;;;;4.30;101697.00;;;;10393111;28;20199;-77
2022/12/02 11:20:54;;;;;;;40.37;17.87;;;;;4.30;101691.00;;;;10426398;28;20267;-78
2022/12/02 11:26:17;;;;;;;43.80;16.63;;;;;4.20;101690.00;;;;10392218;28;20711;-77
2022/12/02 11:31:23;;;;;;;36.47;15.60;;;;;4.20;101687.00;;;;10396766;28;20700;-77
2022/12/02 11:36:28;;;;;;;36.80;14.67;;;;;4.20;101688.00;;;;10386845;28;20196;-77
2022/12/02 11:41:53;;;;;;;38.23;15.60;;;;;4.30;101690.00;;;;10372030;28;20242;-77
2022/12/02 11:46:57;;;;;;;37.27;14.13;;;;;4.40;101679.00;;;;10354631;28;20203;-77
2022/12/02 11:52:08;;;;;;;36.50;13.70;;;;;4.40;101681.00;;;;10366065;28;20192;-77
2022/12/02 11:57:23;;;;;;;35.03;15.13;;;;;4.30;101669.00;;;;10338750;28;20211;-77
2022/12/02 12:02:25;;;;;;;35.23;15.20;;;;;4.30;101666.00;;;;10370841;28;20237;-77
2022/12/02 12:07:48;;;;;;;31.20;12.93;;;;;4.20;101659.00;;;;10421909;28;20709;-77
2022/12/02 12:13:23;;;;;;;36.30;14.37;;;;;4.10;101658.00;;;;10411391;28;20197;-77
2022/12/02 12:18:47;;;;;;;38.40;14.43;;;;;4.10;101642.00;;;;10399144;28;20729;-77
2022/12/02 12:23:49;;;;;;;34.20;12.90;;;;;4.10;101638.00;;;;10447708;28;20572;-77
2022/12/02 12:28:51;;;;;;;27.90;12.67;;;;;4.10;101642.00;;;;10418501;28;20272;-78
2022/12/02 12:33:53;;;;;;;23.77;11.73;;;;;4.00;101635.00;;;;10416233;28;20198;-77
2022/12/02 12:38:55;;;;;;;28.13;12.27;;;;;3.90;101635.00;;;;10375587;28;20195;-77
2022/12/02 12:43:57;;;;;;;28.10;12.77;;;;;3.80;101646.00;;;;10325156;28;20199;-77
2022/12/02 12:48:59;;;;;;;33.33;11.77;;;;;3.80;101644.00;;;;10336605;28;20199;-77
2022/12/02 12:54:01;;;;;;;26.40;12.80;;;;;3.80;101647.00;;;;10353108;28;20247;-77
2022/12/02 12:59:03;;;;;;;32.80;12.87;;;;;3.80;101642.00;;;;10369289;28;20206;-77
2022/12/02 13:04:05;;;;;;;31.20;13.37;;;;;3.80;101650.00;;;;10367167;28;20688;-77
2022/12/02 13:09:07;;;;;;;32.47;12.80;;;;;3.80;101634.00;;;;10381322;28;20192;-78
2022/12/02 13:14:09;;;;;;;33.07;13.43;;;;;3.80;101632.00;;;;10384621;28;20223;-77
2022/12/02 13:19:11;;;;;;;36.47;12.47;;;;;3.80;101638.00;;;;10379748;28;20734;-77
2022/12/02 13:24:14;;;;;;;33.53;13.07;;;;;3.80;101627.00;;;;10422749;28;20221;-77
2022/12/02 13:29:16;;;;;;;25.47;12.73;;;;;3.70;101619.00;;;;10456104;28;20193;-77
2022/12/02 13:34:18;;;;;;;33.03;13.83;;;;;3.70;101616.00;;;;10436972;28;20189;-77
2022/12/02 13:39:20;;;;;;;32.87;13.30;;;;;3.80;101614.00;;;;10458093;28;20186;-77
2022/12/02 13:44:22;;;;;;;26.90;12.27;;;;;3.80;101613.00;;;;10491196;28;20276;-78
2022/12/02 13:49:24;;;;;;;31.37;13.60;;;;;3.80;101609.00;;;;10457236;28;20243;-77
2022/12/02 13:54:26;;;;;;;38.60;14.80;;;;;3.80;101615.00;;;;10457326;28;20193;-77
2022/12/02 13:59:28;;;;;;;36.10;14.17;;;;;3.80;101613.00;;;;10473546;28;20268;-77
2022/12/02 14:04:38;;;;;;;36.60;15.30;;;;;3.80;101607.00;;;;10458219;28;20205;-77
2022/12/02 14:09:40;;;;;;;37.23;14.97;;;;;3.80;101608.00;;;;10443495;28;20222;-78
2022/12/02 14:14:42;;;;;;;38.83;16.47;;;;;3.90;101604.00;;;;10416424;28;20583;-77
2022/12/02 14:19:44;;;;;;;39.63;15.47;;;;;3.90;101600.00;;;;10437658;28;20261;-77
2022/12/02 14:24:45;;;;;;;45.77;15.10;;;;;3.90;101606.00;;;;10457772;28;20676;-78
2022/12/02 14:29:50;;;;;;;48.40;16.77;;;;;3.90;101594.00;;;;10399186;28;20209;-77
2022/12/02 14:34:52;;;;;;;40.30;16.57;;;;;3.90;101607.00;;;;10450669;28;20233;-77
2022/12/02 14:39:54;;;;;;;47.40;17.43;;;;;3.90;101609.00;;;;10439290;28;20580;-77
2022/12/02 14:44:56;;;;;;;42.10;17.00;;;;;3.90;101609.00;;;;10424034;28;20253;-77
2022/12/02 14:49:58;;;;;;;43.83;17.80;;;;;3.90;101607.00;;;;10422122;28;20663;-77
2022/12/02 14:55:00;;;;;;;37.27;15.80;;;;;3.90;101612.00;;;;10468753;28;20202;-77
2022/12/02 15:00:03;;;;;;;43.07;16.60;;;;;3.90;101609.00;;;;10404862;28;20214;-77
2022/12/02 15:05:05;;;;;;;51.83;19.37;;;;;3.90;101608.00;;;;10444054;28;20206;-77
2022/12/02 15:10:15;;;;;;;51.80;18.80;;;;;3.80;101615.00;;;;10478503;28;20191;-77
2022/12/02 15:15:17;;;;;;;56.90;18.27;;;;;3.80;101608.00;;;;10507422;28;20309;-77
2022/12/02 15:20:39;;;;;;;49.13;16.03;;;;;3.80;101620.00;;;;10457293;28;20249;-77
2022/12/02 15:25:41;;;;;;;44.87;15.47;;;;;3.70;101615.00;;;;10462164;28;20304;-78
2022/12/02 15:30:43;;;;;;;49.97;17.33;;;;;3.70;101614.00;;;;10440499;28;20205;-78
2022/12/02 15:35:46;;;;;;;47.27;15.73;;;;;3.70;101615.00;;;;10465613;28;20186;-78
2022/12/02 15:40:48;;;;;;;47.87;16.47;;;;;3.70;101621.00;;;;10420559;28;20565;-78
2022/12/02 15:45:50;;;;;;;44.07;16.77;;;;;3.70;101617.00;;;;10459921;28;20216;-78
2022/12/02 15:50:52;;;;;;;44.27;17.17;;;;;3.70;101623.00;;;;10519791;28;20189;-78
2022/12/02 15:55:56;;;;;;;47.93;16.30;;;;;3.70;101616.00;;;;10506766;28;20186;-78
2022/12/02 16:00:58;;;;;;;43.93;15.57;;;;;3.60;101616.00;;;;10463445;28;20300;-78
2022/12/02 16:06:01;;;;;;;38.73;15.83;;;;;3.60;101624.00;;;;10463364;28;20213;-78
2022/12/02 16:11:02;;;;;;;42.47;16.47;;;;;3.60;101625.00;;;;10443075;28;20216;-77
2022/12/02 16:16:04;;;;;;;43.20;15.20;;;;;3.60;101624.00;;;;10477654;28;20667;-78
2022/12/02 16:21:06;;;;;;;38.33;17.37;;;;;3.60;101621.00;;;;10448535;28;20198;-78
2022/12/02 16:26:08;;;;;;;44.40;16.30;;;;;3.60;101627.00;;;;10417074;28;20210;-78
2022/12/02 16:31:10;;;;;;;37.23;14.70;;;;;3.60;101629.00;;;;10446608;28;20248;-78
2022/12/02 16:36:12;;;;;;;38.70;14.23;;;;;3.50;101629.00;;;;10488293;28;20212;-78
2022/12/02 16:41:14;;;;;;;39.57;16.47;;;;;3.50;101637.00;;;;10482909;28;20193;-78
2022/12/02 16:46:17;;;;;;;32.70;14.70;;;;;3.50;101634.00;;;;10450318;28;20202;-78
2022/12/02 16:51:19;;;;;;;38.30;15.63;;;;;3.50;101644.00;;;;10416174;28;20703;-78
2022/12/02 16:56:21;;;;;;;39.20;16.80;;;;;3.50;101635.00;;;;10461652;28;20223;-78
2022/12/02 17:01:24;;;;;;;38.60;16.67;;;;;3.40;101645.00;;;;10455827;28;20224;-78
2022/12/02 17:06:26;;;;;;;40.53;18.60;;;;;3.40;101647.00;;;;10455083;28;20244;-78
2022/12/02 17:11:28;;;;;;;35.40;17.13;;;;;3.40;101649.00;;;;10440462;28;20664;-78
2022/12/02 17:16:30;;;;;;;35.03;18.43;;;;;3.30;101653.00;;;;10426708;28;20663;-77
2022/12/02 17:21:31;;;;;;;39.27;18.03;;;;;3.20;101649.00;;;;10469136;28;20189;-78
2022/12/02 17:26:33;;;;;;;39.93;20.93;;;;;3.20;101663.00;;;;10461437;28;20327;-78
2022/12/02 17:31:35;;;;;;;41.30;20.03;;;;;3.20;101653.00;;;;10434751;28;20194;-78
2022/12/02 17:36:37;;;;;;;37.83;18.90;;;;;3.10;101666.00;;;;10457890;28;20235;-78
2022/12/02 17:41:39;;;;;;;44.03;20.47;;;;;3.10;101662.00;;;;10456179;28;20209;-77
2022/12/02 17:46:41;;;;;;;44.83;20.53;;;;;3.00;101675.00;;;;10441343;28;20204;-78
2022/12/02 17:51:43;;;;;;;49.17;24.37;;;;;3.00;101661.00;;;;10462493;28;20193;-78
2022/12/02 17:57:04;;;;;;;53.27;23.30;;;;;2.90;101667.00;;;;10429059;28;20185;-78
2022/12/02 18:02:08;;;;;;;56.17;24.23;;;;;2.90;101664.00;;;;10402800;28;20243;-78
2022/12/02 18:07:11;;;;;;;51.33;24.23;;;;;2.90;101682.00;;;;10444812;28;20216;-78
2022/12/02 18:12:13;;;;;;;51.83;23.77;;;;;2.90;101668.00;;;;10455378;28;20679;-78
2022/12/02 18:17:15;;;;;;;53.27;22.60;;;;;2.90;101668.00;;;;10464524;28;20193;-78
2022/12/02 18:22:17;;;;;;;54.57;24.93;;;;;2.90;101672.00;;;;10469048;28;20193;-78
2022/12/02 18:27:19;;;;;;;61.70;26.93;;;;;2.90;101670.00;;;;10478057;28;20256;-78
2022/12/02 18:32:21;;;;;;;56.47;25.43;;;;;2.90;101675.00;;;;10484976;28;20226;-78
2022/12/02 18:37:23;;;;;;;58.73;25.30;;;;;2.90;101683.00;;;;10461912;28;20213;-78
2022/12/02 18:42:24;;;;;;;57.87;28.00;;;;;2.90;101674.00;;;;10483989;28;20213;-78
2022/12/02 18:47:26;;;;;;;50.63;24.40;;;;;2.90;101671.00;;;;10435324;28;20271;-78
2022/12/02 18:52:28;;;;;;;59.27;24.07;;;;;2.80;101674.00;;;;10444720;28;20217;-78
2022/12/02 18:57:30;;;;;;;51.23;24.30;;;;;2.80;101674.00;;;;10425248;28;20638;-78
2022/12/02 19:02:32;;;;;;;48.17;22.07;;;;;2.90;101666.00;;;;10470397;28;20730;-78
2022/12/02 19:07:35;;;;;;;48.80;23.07;;;;;2.90;101655.00;;;;10469739;28;20220;-78
2022/12/02 19:12:37;;;;;;;46.03;22.20;;;;;2.90;101668.00;;;;10413168;28;20205;-77
2022/12/02 19:17:39;;;;;;;47.73;22.27;;;;;2.90;101664.00;;;;10462815;28;20232;-78
2022/12/02 19:22:44;;;;;;;52.13;23.10;;;;;2.90;101658.00;;;;10423111;28;20264;-78
2022/12/02 19:27:47;;;;;;;50.57;22.80;;;;;2.90;101651.00;;;;10438117;28;20313;-78
2022/12/02 19:32:58;;;;;;;48.27;22.37;;;;;2.90;101646.00;;;;10434249;28;20209;-78
2022/12/02 19:38:00;;;;;;;52.07;24.23;;;;;2.90;101652.00;;;;10443765;28;20193;-78
2022/12/02 19:43:09;;;;;;;42.23;20.53;;;;;2.90;101653.00;;;;10469439;28;20201;-78
2022/12/02 19:48:11;;;;;;;44.93;21.43;;;;;2.90;101644.00;;;;10426678;28;20217;-78
2022/12/02 19:53:13;;;;;;;50.97;21.97;;;;;2.90;101643.00;;;;10453874;28;20190;-78
2022/12/02 19:58:15;;;;;;;50.07;22.47;;;;;2.80;101657.00;;;;10441685;28;20192;-78
2022/12/02 20:03:17;;;;;;;45.17;21.60;;;;;2.80;101654.00;;;;10434198;28;20313;-77
2022/12/02 20:08:19;;;;;;;42.80;21.90;;;;;2.80;101651.00;;;;10473176;28;20194;-78
2022/12/02 20:13:21;;;;;;;38.70;19.53;;;;;2.80;101652.00;;;;10473204;28;20243;-78
2022/12/02 20:18:23;;;;;;;43.40;20.77;;;;;2.80;101642.00;;;;10457894;28;20217;-78
2022/12/02 20:23:25;;;;;;;41.23;22.73;;;;;2.80;101633.00;;;;10479653;28;20279;-78
2022/12/02 20:28:27;;;;;;;43.47;20.53;;;;;2.80;101636.00;;;;10432723;28;20203;-78
2022/12/02 20:33:29;;;;;;;47.47;19.63;;;;;2.80;101642.00;;;;10474517;28;20197;-78
2022/12/02 20:38:31;;;;;;;46.37;21.37;;;;;2.80;101644.00;;;;10473329;28;20209;-78
2022/12/02 20:43:32;;;;;;;44.87;21.93;;;;;2.80;101646.00;;;;10461662;28;20198;-78
2022/12/02 20:48:34;;;;;;;43.50;21.43;;;;;2.80;101659.00;;;;10473845;28;20215;-78
2022/12/02 20:53:36;;;;;;;44.70;21.73;;;;;2.80;101642.00;;;;10449785;28;20244;-78
2022/12/02 20:58:38;;;;;;;41.80;19.43;;;;;2.70;101637.00;;;;10452898;28;20202;-78
2022/12/02 21:03:40;;;;;;;47.97;20.70;;;;;2.70;101632.00;;;;10434574;28;20213;-78
2022/12/02 21:08:42;;;;;;;42.03;20.23;;;;;2.70;101644.00;;;;10455715;28;20703;-78
2022/12/02 21:13:44;;;;;;;45.47;20.43;;;;;2.70;101645.00;;;;10460805;28;20185;-78
2022/12/02 21:18:47;;;;;;;41.57;18.57;;;;;2.70;101649.00;;;;10447250;28;20215;-78
2022/12/02 21:23:49;;;;;;;44.20;20.33;;;;;2.70;101650.00;;;;10461624;28;20695;-78
2022/12/02 21:28:51;;;;;;;43.90;21.37;;;;;2.70;101656.00;;;;10453753;28;20264;-78
2022/12/02 21:33:52;;;;;;;36.23;18.87;;;;;2.60;101641.00;;;;10453130;28;20198;-77
2022/12/02 21:38:54;;;;;;;39.53;18.93;;;;;2.60;101647.00;;;;10434409;28;20194;-77
2022/12/02 21:43:56;;;;;;;42.17;21.20;;;;;2.60;101648.00;;;;10457733;28;20189;-78
2022/12/02 21:48:58;;;;;;;42.27;19.27;;;;;2.60;101658.00;;;;10496401;28;20237;-78
2022/12/02 21:54:00;;;;;;;42.07;19.67;;;;;2.60;101651.00;;;;10467479;28;20189;-78
2022/12/02 21:59:04;;;;;;;41.37;19.97;;;;;2.60;101657.00;;;;10456869;28;20259;-78
2022/12/02 22:04:14;;;;;;;41.67;18.33;;;;;2.50;101652.00;;;;10454243;28;20204;-78
2022/12/02 22:09:19;;;;;;;37.03;18.40;;;;;2.50;101650.00;;;;10481061;28;20280;-78
2022/12/02 22:14:21;;;;;;;36.80;18.07;;;;;2.50;101651.00;;;;10440904;28;20731;-78
2022/12/02 22:19:23;;;;;;;40.33;19.53;;;;;2.50;101654.00;;;;10449869;28;20186;-78
2022/12/02 22:24:25;;;;;;;41.40;19.20;;;;;2.50;101648.00;;;;10444659;28;20210;-78
2022/12/02 22:29:27;;;;;;;39.50;17.13;;;;;2.50;101654.00;;;;10438334;28;20198;-78
2022/12/02 22:34:29;;;;;;;40.07;18.30;;;;;2.50;101654.00;;;;10440503;28;20186;-78
2022/12/02 22:39:30;;;;;;;38.03;18.13;;;;;2.50;101652.00;;;;10425779;28;20194;-78
2022/12/02 22:44:32;;;;;;;35.60;17.13;;;;;2.50;101653.00;;;;10465963;28;20208;-77
2022/12/02 22:49:34;;;;;;;34.80;17.03;;;;;2.50;101652.00;;;;10469971;28;20209;-77
2022/12/02 22:54:36;;;;;;;35.87;17.57;;;;;2.50;101639.00;;;;10466379;28;20225;-78
2022/12/02 22:59:38;;;;;;;36.70;17.93;;;;;2.50;101650.00;;;;10478697;28;20186;-78
2022/12/02 23:04:40;;;;;;;41.93;19.93;;;;;2.40;101636.00;;;;10443734;28;20867;-78
2022/12/02 23:09:41;;;;;;;39.97;17.37;;;;;2.40;101641.00;;;;10461776;28;20941;-77
2022/12/02 23:14:43;;;;;;;30.33;15.93;;;;;2.40;101632.00;;;;10460152;28;20189;-78
2022/12/02 23:19:45;;;;;;;32.10;15.53;;;;;2.40;101638.00;;;;10441740;28;20245;-78
2022/12/02 23:24:47;;;;;;;31.87;16.97;;;;;2.40;101640.00;;;;10436603;28;20213;-78
2022/12/02 23:29:49;;;;;;;36.40;18.17;;;;;2.40;101638.00;;;;10436687;28;20214;-78
2022/12/02 23:34:51;;;;;;;31.60;14.70;;;;;2.40;101628.00;;;;10431901;28;20803;-78
2022/12/02 23:39:53;;;;;;;31.80;16.30;;;;;2.40;101625.00;;;;10437036;28;20197;-78
2022/12/02 23:44:55;;;;;;;28.97;14.07;;;;;2.40;101622.00;;;;10420975;28;20182;-78
2022/12/02 23:49:57;;;;;;;32.67;15.73;;;;;2.30;101616.00;;;;10433682;28;20210;-78
2022/12/02 23:54:59;;;;;;;26.40;14.23;;;;;2.30;101606.00;;;;10439937;28;20192;-78
